Back to Top

Language: 

My Weather Underground Personal Weather Station Historical Data with Graphs...

Delerius Weather Station Historical Data
Daily Summary for April 5, 2017 Units:  English    Metric   Both
« Previous Day
Next Day »
Daily Weekly Monthly Yearly Custom
  High: Low: Average:
Temperature: 56.7 °F 42.4 °F 48.9 °F
Dew Point: 43.6 °F 37.9 °F 40.9 °F
Humidity: 85 % 59 % 74 %
Wind Speed: 15.0 mph 0.0 mph 8.1 mph
Wind Gust: 27.0 mph - -
Wind:- - WNW
Pressure: 30.47 in 30.38 in -
Precipitation: 0.00 in    
Historical Graphs
 
 
Tabular Data for April 5, 2017
Time Temperature Dew Point Pressure Wind Wind Speed Wind Gust Humidity Rainfall Rate (Hourly) solar Conditions
00:03 44.1 °F 38.3 °F 30.42 in WNW 1.0 mph 5.0 mph 80 % 0.00 in 0 W/m2
00:08 44.1 °F 38.3 °F 30.42 in WNW 2.0 mph 6.0 mph 80 % 0.00 in 0 W/m2
00:12 43.9 °F 38.4 °F 30.42 in WNW 3.0 mph 7.0 mph 81 % 0.00 in 0 W/m2
00:17 43.9 °F 38.4 °F 30.42 in WNW 3.0 mph 9.0 mph 81 % 0.00 in 0 W/m2
00:23 43.9 °F 38.4 °F 30.42 in WNW 4.0 mph 12.0 mph 81 % 0.00 in 0 W/m2
00:28 43.9 °F 38.4 °F 30.42 in WNW 5.0 mph 12.0 mph 81 % 0.00 in 0 W/m2
00:33 43.9 °F 38.4 °F 30.42 in WNW 6.0 mph 11.0 mph 81 % 0.00 in 0 W/m2
00:38 44.1 °F 38.6 °F 30.42 in WNW 6.0 mph 14.0 mph 81 % 0.00 in 0 W/m2
00:43 44.2 °F 38.8 °F 30.41 in WNW 8.0 mph 14.0 mph 81 % 0.00 in 0 W/m2
00:48 44.2 °F 38.5 °F 30.41 in WNW 9.0 mph 18.0 mph 80 % 0.00 in 0 W/m2
00:53 44.4 °F 38.6 °F 30.41 in WNW 9.0 mph 18.0 mph 80 % 0.00 in 0 W/m2
00:58 44.4 °F 38.6 °F 30.41 in WNW 8.0 mph 16.0 mph 80 % 0.00 in 0 W/m2
01:03 44.4 °F 38.6 °F 30.41 in WNW 7.0 mph 16.0 mph 80 % 0.00 in 0 W/m2
01:08 44.2 °F 38.8 °F 30.41 in WNW 7.0 mph 13.0 mph 81 % 0.00 in 0 W/m2
01:13 44.2 °F 38.8 °F 30.41 in WNW 7.0 mph 13.0 mph 81 % 0.00 in 0 W/m2
01:18 44.2 °F 38.8 °F 30.41 in WNW 6.0 mph 11.0 mph 81 % 0.00 in 0 W/m2
01:23 44.1 °F 38.6 °F 30.41 in WNW 7.0 mph 11.0 mph 81 % 0.00 in 0 W/m2
01:28 44.1 °F 38.6 °F 30.41 in WNW 7.0 mph 11.0 mph 81 % 0.00 in 0 W/m2
01:33 44.1 °F 38.6 °F 30.41 in WNW 5.0 mph 11.0 mph 81 % 0.00 in 0 W/m2
01:38 43.9 °F 38.4 °F 30.41 in WNW 3.0 mph 8.0 mph 81 % 0.00 in 0 W/m2
01:43 43.7 °F 38.6 °F 30.40 in West 4.0 mph 9.0 mph 82 % 0.00 in 0 W/m2
01:48 43.5 °F 38.4 °F 30.41 in WNW 5.0 mph 10.0 mph 82 % 0.00 in 0 W/m2
01:53 43.5 °F 38.7 °F 30.41 in WNW 6.0 mph 10.0 mph 83 % 0.00 in 0 W/m2
01:58 43.3 °F 38.5 °F 30.40 in WNW 5.0 mph 10.0 mph 83 % 0.00 in 0 W/m2
02:03 43.3 °F 38.5 °F 30.40 in West 4.0 mph 8.0 mph 83 % 0.00 in 0 W/m2
02:08 43.3 °F 38.5 °F 30.40 in West 4.0 mph 8.0 mph 83 % 0.00 in 0 W/m2
02:13 43.3 °F 38.5 °F 30.40 in WNW 3.0 mph 7.0 mph 83 % 0.00 in 0 W/m2
02:18 43.2 °F 38.3 °F 30.40 in West 2.0 mph 7.0 mph 83 % 0.00 in 0 W/m2
02:23 43.0 °F 38.2 °F 30.40 in WNW 3.0 mph 10.0 mph 83 % 0.00 in 0 W/m2
02:28 42.8 °F 38.3 °F 30.40 in WNW 4.0 mph 10.0 mph 84 % 0.00 in 0 W/m2
02:33 42.6 °F 38.1 °F 30.40 in WNW 3.0 mph 6.0 mph 84 % 0.00 in 0 W/m2
02:38 42.6 °F 38.1 °F 30.40 in WNW 1.0 mph 5.0 mph 84 % 0.00 in 0 W/m2
02:43 42.4 °F 37.9 °F 30.40 in WNW 1.0 mph 4.0 mph 84 % 0.00 in 0 W/m2
02:48 42.4 °F 37.9 °F 30.40 in WNW 2.0 mph 8.0 mph 84 % 0.00 in 0 W/m2
02:53 42.6 °F 38.1 °F 30.40 in WNW 6.0 mph 13.0 mph 84 % 0.00 in 0 W/m2
02:58 43.0 °F 38.2 °F 30.40 in WNW 7.0 mph 13.0 mph 83 % 0.00 in 0 W/m2
03:03 43.2 °F 38.3 °F 30.39 in WNW 5.0 mph 11.0 mph 83 % 0.00 in 0 W/m2
03:08 43.2 °F 38.0 °F 30.40 in WNW 4.0 mph 11.0 mph 82 % 0.00 in 0 W/m2
03:13 43.2 °F 38.0 °F 30.39 in WNW 3.0 mph 10.0 mph 82 % 0.00 in 0 W/m2
03:18 43.2 °F 38.3 °F 30.40 in WNW 2.0 mph 10.0 mph 83 % 0.00 in 0 W/m2
03:23 43.2 °F 38.3 °F 30.40 in NW 1.0 mph 7.0 mph 83 % 0.00 in 0 W/m2
03:28 43.2 °F 38.3 °F 30.40 in NW 1.0 mph 7.0 mph 83 % 0.00 in 0 W/m2
03:33 43.2 °F 38.3 °F 30.40 in WNW 1.0 mph 5.0 mph 83 % 0.00 in 0 W/m2
03:38 43.0 °F 37.9 °F 30.39 in WNW 1.0 mph 5.0 mph 82 % 0.00 in 0 W/m2
03:43 43.0 °F 38.2 °F 30.40 in WNW 1.0 mph 7.0 mph 83 % 0.00 in 0 W/m2
03:48 43.0 °F 38.2 °F 30.40 in WNW 2.0 mph 9.0 mph 83 % 0.00 in 0 W/m2
03:53 43.2 °F 38.3 °F 30.40 in WNW 2.0 mph 9.0 mph 83 % 0.00 in 0 W/m2
03:58 43.2 °F 38.3 °F 30.40 in WNW 1.0 mph 7.0 mph 83 % 0.00 in 0 W/m2
04:03 43.0 °F 37.9 °F 30.40 in NW 1.0 mph 7.0 mph 82 % 0.00 in 0 W/m2
04:08 43.0 °F 38.2 °F 30.40 in Calm   7.0 mph 83 % 0.00 in 0 W/m2
04:13 42.8 °F 38.0 °F 30.40 in Calm   1.0 mph 83 % 0.00 in 0 W/m2
04:18 42.8 °F 38.0 °F 30.40 in Calm   1.0 mph 83 % 0.00 in 0 W/m2
04:23 43.0 °F 38.5 °F 30.39 in WNW 2.0 mph 10.0 mph 84 % 0.00 in 0 W/m2
04:28 43.2 °F 38.7 °F 30.39 in WNW 5.0 mph 12.0 mph 84 % 0.00 in 0 W/m2
04:33 43.3 °F 38.8 °F 30.39 in WNW 5.0 mph 12.0 mph 84 % 0.00 in 0 W/m2
04:38 43.5 °F 39.0 °F 30.39 in WNW 5.0 mph 12.0 mph 84 % 0.00 in 0 W/m2
04:43 43.9 °F 39.1 °F 30.38 in WNW 4.0 mph 11.0 mph 83 % 0.00 in 0 W/m2
04:48 43.9 °F 39.1 °F 30.38 in WNW 2.0 mph 11.0 mph 83 % 0.00 in 0 W/m2
04:54 43.9 °F 39.1 °F 30.39 in Calm   5.0 mph 83 % 0.00 in 0 W/m2
04:59 43.9 °F 39.1 °F 30.39 in NW 1.0 mph 6.0 mph 83 % 0.00 in 0 W/m2
05:04 43.9 °F 39.1 °F 30.39 in NW 2.0 mph 14.0 mph 83 % 0.00 in 0 W/m2
05:09 44.1 °F 39.2 °F 30.39 in NW 2.0 mph 14.0 mph 83 % 0.00 in 0 W/m2
05:14 44.1 °F 39.2 °F 30.40 in NNW 1.0 mph 8.0 mph 83 % 0.00 in 0 W/m2
05:19 44.1 °F 39.2 °F 30.40 in NW 3.0 mph 12.0 mph 83 % 0.00 in 0 W/m2
05:24 44.1 °F 38.9 °F 30.39 in WNW 5.0 mph 12.0 mph 82 % 0.00 in 0 W/m2
05:29 44.1 °F 38.9 °F 30.39 in WNW 5.0 mph 11.0 mph 82 % 0.00 in 0 W/m2
05:34 44.1 °F 39.2 °F 30.39 in NW 3.0 mph 11.0 mph 83 % 0.00 in 0 W/m2
05:39 43.9 °F 39.1 °F 30.39 in NW 2.0 mph 11.0 mph 83 % 0.00 in 0 W/m2
05:44 43.9 °F 38.7 °F 30.38 in NW 4.0 mph 11.0 mph 82 % 0.00 in 0 W/m2
05:49 44.1 °F 38.9 °F 30.38 in WNW 6.0 mph 12.0 mph 82 % 0.00 in 0 W/m2
05:54 44.2 °F 38.8 °F 30.39 in WNW 8.0 mph 18.0 mph 81 % 0.00 in 0 W/m2
05:59 44.4 °F 39.0 °F 30.39 in WNW 9.0 mph 18.0 mph 81 % 0.00 in 0 W/m2
06:04 44.6 °F 39.1 °F 30.39 in WNW 9.0 mph 18.0 mph 81 % 0.00 in 0 W/m2
06:09 44.8 °F 39.0 °F 30.39 in WNW 8.0 mph 15.0 mph 80 % 0.00 in 0 W/m2
06:14 44.8 °F 39.0 °F 30.39 in WNW 8.0 mph 15.0 mph 80 % 0.00 in 0 W/m2
06:19 44.8 °F 39.0 °F 30.39 in WNW 10.0 mph 21.0 mph 80 % 0.00 in 0 W/m2
06:20 44.8 °F 39.0 °F 30.40 in WNW 10.0 mph 21.0 mph 80 % 0.00 in 0 W/m2
06:25 45.0 °F 39.2 °F 30.40 in NW 11.0 mph 21.0 mph 80 % 0.00 in 0 W/m2
06:30 45.0 °F 39.2 °F 30.40 in NW 9.0 mph 20.0 mph 80 % 0.00 in 0 W/m2
06:35 44.8 °F 39.0 °F 30.40 in NW 7.0 mph 13.0 mph 80 % 0.00 in 5 W/m2
06:40 44.8 °F 39.0 °F 30.40 in NW 7.0 mph 16.0 mph 80 % 0.00 in 9 W/m2
06:45 45.0 °F 39.2 °F 30.41 in NW 8.0 mph 16.0 mph 80 % 0.00 in 12 W/m2
06:50 45.0 °F 39.2 °F 30.40 in NW 6.0 mph 16.0 mph 80 % 0.00 in 18 W/m2
06:55 45.1 °F 39.0 °F 30.41 in NNW 3.0 mph 12.0 mph 79 % 0.00 in 23 W/m2
07:00 45.1 °F 39.0 °F 30.42 in NNW 4.0 mph 15.0 mph 79 % 0.00 in 28 W/m2
07:05 45.1 °F 39.0 °F 30.41 in NW 7.0 mph 19.0 mph 79 % 0.00 in 33 W/m2
07:10 45.3 °F 39.2 °F 30.42 in NW 9.0 mph 19.0 mph 79 % 0.00 in 40 W/m2
07:15 45.3 °F 39.2 °F 30.42 in NW 9.0 mph 18.0 mph 79 % 0.00 in 46 W/m2
07:20 45.5 °F 39.4 °F 30.42 in NW 8.0 mph 14.0 mph 79 % 0.00 in 49 W/m2
07:25 45.5 °F 39.4 °F 30.42 in WNW 9.0 mph 21.0 mph 79 % 0.00 in 53 W/m2
07:30 45.7 °F 39.5 °F 30.42 in WNW 10.0 mph 21.0 mph 79 % 0.00 in 54 W/m2
07:35 45.7 °F 39.5 °F 30.41 in WNW 9.0 mph 16.0 mph 79 % 0.00 in 58 W/m2
07:40 45.7 °F 39.5 °F 30.42 in WNW 8.0 mph 18.0 mph 79 % 0.00 in 62 W/m2
07:45 45.9 °F 39.7 °F 30.42 in NW 7.0 mph 18.0 mph 79 % 0.00 in 69 W/m2
07:50 46.0 °F 39.9 °F 30.42 in NW 6.0 mph 13.0 mph 79 % 0.00 in 72 W/m2
07:56 46.2 °F 40.1 °F 30.42 in WNW 6.0 mph 13.0 mph 79 % 0.00 in 83 W/m2
08:01 46.4 °F 39.9 °F 30.43 in WNW 7.0 mph 15.0 mph 78 % 0.00 in 100 W/m2
08:06 46.6 °F 40.1 °F 30.43 in WNW 8.0 mph 16.0 mph 78 % 0.00 in 193 W/m2
08:11 46.9 °F 40.4 °F 30.43 in WNW 8.0 mph 16.0 mph 78 % 0.00 in 220 W/m2
08:16 47.5 °F 41.0 °F 30.43 in WNW 8.0 mph 15.0 mph 78 % 0.00 in 207 W/m2
08:21 47.8 °F 41.0 °F 30.43 in WNW 8.0 mph 15.0 mph 77 % 0.00 in 237 W/m2
08:26 48.2 °F 41.3 °F 30.43 in WNW 8.0 mph 16.0 mph 77 % 0.00 in 250 W/m2
08:31 48.6 °F 41.3 °F 30.43 in WNW 10.0 mph 23.0 mph 76 % 0.00 in 234 W/m2
08:36 48.6 °F 41.3 °F 30.43 in WNW 8.0 mph 23.0 mph 76 % 0.00 in 91 W/m2
08:41 48.7 °F 41.2 °F 30.43 in WNW 7.0 mph 16.0 mph 75 % 0.00 in 271 W/m2
08:46 48.9 °F 41.3 °F 30.43 in WNW 7.0 mph 16.0 mph 75 % 0.00 in 123 W/m2
08:51 49.3 °F 41.7 °F 30.44 in WNW 7.0 mph 16.0 mph 75 % 0.00 in 299 W/m2
08:56 49.5 °F 41.5 °F 30.44 in WNW 8.0 mph 16.0 mph 74 % 0.00 in 144 W/m2
09:01 49.6 °F 41.7 °F 30.43 in WNW 7.0 mph 14.0 mph 74 % 0.00 in 125 W/m2
09:06 49.6 °F 41.3 °F 30.43 in NW 8.0 mph 20.0 mph 73 % 0.00 in 95 W/m2
09:11 49.3 °F 41.3 °F 30.43 in WNW 9.0 mph 20.0 mph 74 % 0.00 in 95 W/m2
09:16 48.9 °F 41.0 °F 30.43 in WNW 10.0 mph 19.0 mph 74 % 0.00 in 135 W/m2
09:21 48.9 °F 41.3 °F 30.43 in WNW 9.0 mph 19.0 mph 75 % 0.00 in 253 W/m2
09:26 49.1 °F 41.5 °F 30.43 in NW 7.0 mph 19.0 mph 75 % 0.00 in 239 W/m2
09:31 49.3 °F 41.7 °F 30.44 in WNW 8.0 mph 19.0 mph 75 % 0.00 in 216 W/m2
09:36 49.5 °F 41.5 °F 30.44 in WNW 10.0 mph 21.0 mph 74 % 0.00 in 181 W/m2
09:41 49.8 °F 41.9 °F 30.44 in WNW 11.0 mph 21.0 mph 74 % 0.00 in 533 W/m2
09:46 50.4 °F 42.4 °F 30.44 in WNW 11.0 mph 21.0 mph 74 % 0.00 in 566 W/m2
09:51 50.9 °F 42.2 °F 30.44 in WNW 12.0 mph 21.0 mph 72 % 0.00 in 207 W/m2
09:56 51.1 °F 42.4 °F 30.45 in WNW 11.0 mph 20.0 mph 72 % 0.00 in 209 W/m2
10:01 50.7 °F 41.7 °F 30.44 in WNW 10.0 mph 20.0 mph 71 % 0.00 in 102 W/m2
10:06 50.4 °F 41.3 °F 30.44 in WNW 12.0 mph 22.0 mph 71 % 0.00 in 130 W/m2
10:12 50.0 °F 41.3 °F 30.44 in WNW 13.0 mph 23.0 mph 72 % 0.00 in 151 W/m2
10:17 50.4 °F 41.7 °F 30.44 in WNW 12.0 mph 23.0 mph 72 % 0.00 in 603 W/m2
10:20 50.9 °F 41.8 °F 30.45 in WNW 12.0 mph 22.0 mph 71 % 0.00 in 654 W/m2
10:25 51.6 °F 41.8 °F 30.44 in WNW 11.0 mph 21.0 mph 69 % 0.00 in 738 W/m2
10:30 52.3 °F 42.1 °F 30.44 in WNW 10.0 mph 20.0 mph 68 % 0.00 in 308 W/m2
10:35 52.7 °F 42.0 °F 30.44 in WNW 8.0 mph 15.0 mph 67 % 0.00 in 253 W/m2
10:40 52.9 °F 42.2 °F 30.44 in WNW 7.0 mph 15.0 mph 67 % 0.00 in 276 W/m2
10:45 52.9 °F 42.2 °F 30.45 in WNW 7.0 mph 14.0 mph 67 % 0.00 in 246 W/m2
10:50 52.7 °F 41.7 °F 30.45 in NW 9.0 mph 18.0 mph 66 % 0.00 in 262 W/m2
10:55 52.7 °F 41.7 °F 30.45 in WNW 9.0 mph 18.0 mph 66 % 0.00 in 207 W/m2
11:00 52.5 °F 41.5 °F 30.45 in WNW 9.0 mph 19.0 mph 66 % 0.00 in 216 W/m2
11:05 52.5 °F 41.9 °F 30.45 in WNW 9.0 mph 19.0 mph 67 % 0.00 in 213 W/m2
11:10 52.3 °F 41.7 °F 30.45 in WNW 9.0 mph 15.0 mph 67 % 0.00 in 287 W/m2
11:15 52.3 °F 42.1 °F 30.45 in NW 9.0 mph 16.0 mph 68 % 0.00 in 329 W/m2
11:20 52.7 °F 42.4 °F 30.45 in WNW 9.0 mph 16.0 mph 68 % 0.00 in 742 W/m2
11:25 53.2 °F 42.6 °F 30.45 in WNW 10.0 mph 22.0 mph 67 % 0.00 in 805 W/m2
11:30 53.8 °F 42.3 °F 30.45 in WNW 12.0 mph 22.0 mph 65 % 0.00 in 904 W/m2
11:35 54.3 °F 42.8 °F 30.45 in NW 11.0 mph 21.0 mph 65 % 0.00 in 904 W/m2
11:40 54.9 °F 42.5 °F 30.44 in WNW 13.0 mph 23.0 mph 63 % 0.00 in 759 W/m2
11:45 55.0 °F 43.1 °F 30.44 in WNW 14.0 mph 23.0 mph 64 % 0.00 in 872 W/m2
11:50 55.2 °F 43.2 °F 30.44 in WNW 12.0 mph 24.0 mph 64 % 0.00 in 323 W/m2
11:55 54.7 °F 42.3 °F 30.45 in WNW 13.0 mph 24.0 mph 63 % 0.00 in 882 W/m2
12:00 54.3 °F 42.4 °F 30.44 in WNW 13.0 mph 24.0 mph 64 % 0.00 in 285 W/m2
12:06 54.1 °F 42.2 °F 30.45 in WNW 13.0 mph 22.0 mph 64 % 0.00 in 243 W/m2
12:11 54.1 °F 42.2 °F 30.45 in WNW 12.0 mph 21.0 mph 64 % 0.00 in 325 W/m2
12:16 54.0 °F 42.1 °F 30.45 in NW 10.0 mph 18.0 mph 64 % 0.00 in 285 W/m2
12:21 53.8 °F 41.9 °F 30.45 in NW 10.0 mph 20.0 mph 64 % 0.00 in 274 W/m2
12:26 54.0 °F 42.1 °F 30.45 in NW 9.0 mph 20.0 mph 64 % 0.00 in 798 W/m2
12:31 54.7 °F 42.3 °F 30.45 in NW 11.0 mph 23.0 mph 63 % 0.00 in 798 W/m2
12:36 54.9 °F 42.1 °F 30.45 in NW 11.0 mph 23.0 mph 62 % 0.00 in 348 W/m2
12:41 54.9 °F 42.5 °F 30.44 in NW 11.0 mph 22.0 mph 63 % 0.00 in 348 W/m2
12:46 55.0 °F 43.1 °F 30.44 in WNW 13.0 mph 22.0 mph 64 % 0.00 in 951 W/m2
12:51 55.4 °F 43.0 °F 30.44 in WNW 13.0 mph 21.0 mph 63 % 0.00 in 199 W/m2
12:56 55.2 °F 42.4 °F 30.44 in WNW 14.0 mph 21.0 mph 62 % 0.00 in 830 W/m2
13:01 54.9 °F 42.1 °F 30.44 in WNW 14.0 mph 23.0 mph 62 % 0.00 in 258 W/m2
13:06 54.3 °F 42.0 °F 30.44 in WNW 13.0 mph 23.0 mph 63 % 0.00 in 318 W/m2
13:11 54.1 °F 42.2 °F 30.44 in WNW 12.0 mph 23.0 mph 64 % 0.00 in 279 W/m2
13:16 54.1 °F 42.2 °F 30.44 in WNW 12.0 mph 23.0 mph 64 % 0.00 in 517 W/m2
13:21 54.9 °F 42.9 °F 30.43 in WNW 13.0 mph 22.0 mph 64 % 0.00 in 877 W/m2
13:26 55.0 °F 42.7 °F 30.43 in WNW 14.0 mph 23.0 mph 63 % 0.00 in 287 W/m2
13:31 54.9 °F 42.5 °F 30.43 in WNW 14.0 mph 23.0 mph 63 % 0.00 in 221 W/m2
13:33 54.7 °F 42.7 °F 30.43 in WNW 13.0 mph 23.0 mph 64 % 0.00 in 243 W/m2
13:38 54.5 °F 42.2 °F 30.43 in WNW 11.0 mph 22.0 mph 63 % 0.00 in 274 W/m2
13:43 54.3 °F 42.4 °F 30.43 in WNW 11.0 mph 19.0 mph 64 % 0.00 in 244 W/m2
13:48 54.1 °F 42.6 °F 30.43 in WNW 10.0 mph 19.0 mph 65 % 0.00 in 234 W/m2
13:53 54.1 °F 43.0 °F 30.43 in WNW 10.0 mph 21.0 mph 66 % 0.00 in 357 W/m2
13:58 54.3 °F 42.8 °F 30.43 in WNW 11.0 mph 21.0 mph 65 % 0.00 in 276 W/m2
14:03 54.3 °F 42.8 °F 30.42 in WNW 11.0 mph 22.0 mph 65 % 0.00 in 450 W/m2
14:08 54.7 °F 42.7 °F 30.42 in WNW 13.0 mph 22.0 mph 64 % 0.00 in 807 W/m2
14:13 55.4 °F 43.0 °F 30.42 in West 14.0 mph 21.0 mph 63 % 0.00 in 840 W/m2
14:18 55.8 °F 42.9 °F 30.43 in West 14.0 mph 22.0 mph 62 % 0.00 in 766 W/m2
14:23 56.1 °F 42.8 °F 30.42 in WNW 14.0 mph 24.0 mph 61 % 0.00 in 659 W/m2
14:28 56.5 °F 43.2 °F 30.42 in WNW 14.0 mph 24.0 mph 61 % 0.00 in 728 W/m2
14:33 56.7 °F 43.4 °F 30.42 in WNW 13.0 mph 24.0 mph 61 % 0.00 in 847 W/m2
14:38 56.5 °F 42.8 °F 30.42 in WNW 13.0 mph 24.0 mph 60 % 0.00 in 840 W/m2
14:43 56.7 °F 42.9 °F 30.42 in WNW 12.0 mph 24.0 mph 60 % 0.00 in 204 W/m2
14:48 56.1 °F 42.4 °F 30.42 in WNW 11.0 mph 21.0 mph 60 % 0.00 in 332 W/m2
14:53 55.9 °F 43.1 °F 30.42 in WNW 10.0 mph 19.0 mph 62 % 0.00 in 429 W/m2
14:58 55.6 °F 42.3 °F 30.42 in WNW 11.0 mph 22.0 mph 61 % 0.00 in 272 W/m2
15:03 55.4 °F 42.6 °F 30.42 in West 14.0 mph 23.0 mph 62 % 0.00 in 775 W/m2
15:08 55.9 °F 43.1 °F 30.42 in WNW 13.0 mph 23.0 mph 62 % 0.00 in 680 W/m2
15:13 56.3 °F 43.0 °F 30.42 in WNW 13.0 mph 23.0 mph 61 % 0.00 in 666 W/m2
15:18 56.5 °F 43.2 °F 30.42 in WNW 14.0 mph 22.0 mph 61 % 0.00 in 490 W/m2
15:23 56.5 °F 43.6 °F 30.42 in WNW 11.0 mph 21.0 mph 62 % 0.00 in 571 W/m2
15:28 56.7 °F 42.9 °F 30.42 in WNW 10.0 mph 18.0 mph 60 % 0.00 in 628 W/m2
15:33 56.7 °F 42.5 °F 30.41 in WNW 12.0 mph 21.0 mph 59 % 0.00 in 603 W/m2
15:39 56.5 °F 42.8 °F 30.41 in WNW 14.0 mph 24.0 mph 60 % 0.00 in 462 W/m2
15:44 56.5 °F 42.8 °F 30.41 in WNW 15.0 mph 24.0 mph 60 % 0.00 in 522 W/m2
15:49 56.3 °F 42.6 °F 30.41 in WNW 14.0 mph 24.0 mph 60 % 0.00 in 499 W/m2
15:54 56.1 °F 42.4 °F 30.40 in WNW 14.0 mph 26.0 mph 60 % 0.00 in 450 W/m2
15:59 55.9 °F 42.7 °F 30.40 in WNW 15.0 mph 26.0 mph 61 % 0.00 in 561 W/m2
16:04 55.9 °F 42.7 °F 30.41 in WNW 15.0 mph 26.0 mph 61 % 0.00 in 577 W/m2
16:09 55.8 °F 42.1 °F 30.41 in WNW 15.0 mph 25.0 mph 60 % 0.00 in 174 W/m2
16:14 55.2 °F 42.0 °F 30.40 in WNW 15.0 mph 25.0 mph 61 % 0.00 in 301 W/m2
16:19 55.0 °F 42.3 °F 30.41 in WNW 14.0 mph 22.0 mph 62 % 0.00 in 468 W/m2
16:24 55.2 °F 42.4 °F 30.41 in WNW 13.0 mph 21.0 mph 62 % 0.00 in 480 W/m2
16:29 55.0 °F 42.7 °F 30.41 in WNW 13.0 mph 21.0 mph 63 % 0.00 in 213 W/m2
16:34 54.3 °F 42.0 °F 30.41 in West 13.0 mph 21.0 mph 63 % 0.00 in 178 W/m2
16:39 54.1 °F 42.2 °F 30.41 in West 11.0 mph 20.0 mph 64 % 0.00 in 234 W/m2
16:44 53.8 °F 41.9 °F 30.41 in West 12.0 mph 23.0 mph 64 % 0.00 in 281 W/m2
16:49 53.8 °F 42.3 °F 30.42 in West 13.0 mph 23.0 mph 65 % 0.00 in 366 W/m2
16:54 54.0 °F 42.5 °F 30.41 in WNW 12.0 mph 22.0 mph 65 % 0.00 in 209 W/m2
16:59 53.8 °F 42.7 °F 30.41 in WNW 12.0 mph 22.0 mph 66 % 0.00 in 171 W/m2
17:04 53.6 °F 42.5 °F 30.41 in WNW 12.0 mph 21.0 mph 66 % 0.00 in 181 W/m2
17:09 53.4 °F 42.7 °F 30.42 in WNW 12.0 mph 21.0 mph 67 % 0.00 in 185 W/m2
17:14 53.2 °F 42.6 °F 30.42 in WNW 13.0 mph 23.0 mph 67 % 0.00 in 195 W/m2
17:19 53.2 °F 42.6 °F 30.42 in WNW 12.0 mph 23.0 mph 67 % 0.00 in 274 W/m2
17:24 53.4 °F 43.1 °F 30.42 in WNW 11.0 mph 22.0 mph 68 % 0.00 in 288 W/m2
17:29 53.6 °F 42.9 °F 30.42 in WNW 10.0 mph 22.0 mph 67 % 0.00 in 327 W/m2
17:34 53.8 °F 43.1 °F 30.42 in West 10.0 mph 19.0 mph 67 % 0.00 in 179 W/m2
17:39 54.0 °F 43.2 °F 30.42 in WNW 10.0 mph 19.0 mph 67 % 0.00 in 288 W/m2
17:44 53.8 °F 42.7 °F 30.42 in WNW 12.0 mph 22.0 mph 66 % 0.00 in 116 W/m2
17:50 53.2 °F 42.6 °F 30.41 in WNW 13.0 mph 22.0 mph 67 % 0.00 in 109 W/m2
17:55 52.9 °F 42.6 °F 30.42 in WNW 12.0 mph 22.0 mph 68 % 0.00 in 97 W/m2
18:00 52.5 °F 42.3 °F 30.42 in WNW 13.0 mph 23.0 mph 68 % 0.00 in 137 W/m2
18:05 52.2 °F 42.3 °F 30.42 in WNW 14.0 mph 27.0 mph 69 % 0.00 in 204 W/m2
18:10 52.2 °F 42.7 °F 30.42 in WNW 12.0 mph 27.0 mph 70 % 0.00 in 200 W/m2
18:15 52.3 °F 42.8 °F 30.43 in WNW 12.0 mph 20.0 mph 70 % 0.00 in 172 W/m2
18:20 52.5 °F 43.0 °F 30.42 in WNW 11.0 mph 20.0 mph 70 % 0.00 in 183 W/m2
18:25 52.7 °F 42.8 °F 30.43 in WNW 9.0 mph 15.0 mph 69 % 0.00 in 95 W/m2
18:30 52.5 °F 43.0 °F 30.43 in WNW 9.0 mph 19.0 mph 70 % 0.00 in 79 W/m2
18:39 52.0 °F 42.5 °F 30.43 in WNW 11.0 mph 23.0 mph 70 % 0.00 in 93 W/m2
18:44 52.0 °F 42.5 °F 30.43 in WNW 13.0 mph 23.0 mph 70 % 0.00 in 72 W/m2
18:49 51.8 °F 42.7 °F 30.43 in WNW 13.0 mph 23.0 mph 71 % 0.00 in 65 W/m2
18:55 51.6 °F 42.5 °F 30.43 in WNW 11.0 mph 23.0 mph 71 % 0.00 in 49 W/m2
19:00 51.4 °F 42.3 °F 30.43 in WNW 11.0 mph 23.0 mph 71 % 0.00 in 46 W/m2
19:05 51.3 °F 42.5 °F 30.43 in WNW 10.0 mph 20.0 mph 72 % 0.00 in 46 W/m2
19:10 51.3 °F 42.5 °F 30.44 in WNW 8.0 mph 20.0 mph 72 % 0.00 in 33 W/m2
19:15 51.1 °F 42.4 °F 30.43 in WNW 8.0 mph 14.0 mph 72 % 0.00 in 28 W/m2
19:20 50.9 °F 42.2 °F 30.44 in WNW 11.0 mph 22.0 mph 72 % 0.00 in 25 W/m2
19:25 50.7 °F 42.0 °F 30.44 in WNW 12.0 mph 22.0 mph 72 % 0.00 in 18 W/m2
19:30 50.5 °F 42.2 °F 30.44 in WNW 9.0 mph 19.0 mph 73 % 0.00 in 14 W/m2
19:35 50.5 °F 42.2 °F 30.44 in WNW 9.0 mph 19.0 mph 73 % 0.00 in 9 W/m2
19:40 50.4 °F 42.0 °F 30.44 in WNW 11.0 mph 21.0 mph 73 % 0.00 in 9 W/m2
19:45 50.2 °F 42.2 °F 30.44 in WNW 11.0 mph 21.0 mph 74 % 0.00 in 7 W/m2
19:50 50.0 °F 42.0 °F 30.44 in WNW 10.0 mph 18.0 mph 74 % 0.00 in 5 W/m2
19:55 49.8 °F 41.9 °F 30.44 in WNW 10.0 mph 18.0 mph 74 % 0.00 in 0 W/m2
20:00 49.6 °F 41.7 °F 30.44 in WNW 10.0 mph 16.0 mph 74 % 0.00 in 0 W/m2
20:05 49.5 °F 41.9 °F 30.44 in WNW 10.0 mph 16.0 mph 75 % 0.00 in 0 W/m2
20:10 49.3 °F 42.0 °F 30.45 in WNW 10.0 mph 16.0 mph 76 % 0.00 in 0 W/m2
20:15 49.1 °F 41.9 °F 30.45 in WNW 7.0 mph 14.0 mph 76 % 0.00 in 0 W/m2
20:20 48.9 °F 42.0 °F 30.44 in WNW 7.0 mph 18.0 mph 77 % 0.00 in 0 W/m2
20:25 48.7 °F 41.8 °F 30.45 in WNW 9.0 mph 18.0 mph 77 % 0.00 in 0 W/m2
20:30 48.6 °F 42.0 °F 30.45 in WNW 8.0 mph 16.0 mph 78 % 0.00 in 0 W/m2
20:35 48.4 °F 41.8 °F 30.45 in WNW 7.0 mph 13.0 mph 78 % 0.00 in 0 W/m2
20:40 48.4 °F 41.8 °F 30.45 in WNW 8.0 mph 14.0 mph 78 % 0.00 in 0 W/m2
20:45 48.0 °F 41.5 °F 30.45 in WNW 8.0 mph 14.0 mph 78 % 0.00 in 0 W/m2
20:50 47.8 °F 41.6 °F 30.46 in WNW 7.0 mph 11.0 mph 79 % 0.00 in 0 W/m2
20:55 47.8 °F 41.6 °F 30.46 in West 6.0 mph 11.0 mph 79 % 0.00 in 0 W/m2
21:00 47.7 °F 41.5 °F 30.45 in WNW 8.0 mph 15.0 mph 79 % 0.00 in 0 W/m2
21:05 47.7 °F 41.8 °F 30.45 in WNW 8.0 mph 15.0 mph 80 % 0.00 in 0 W/m2
21:10 47.5 °F 41.6 °F 30.46 in WNW 7.0 mph 12.0 mph 80 % 0.00 in 0 W/m2
21:15 47.3 °F 41.4 °F 30.47 in WNW 6.0 mph 11.0 mph 80 % 0.00 in 0 W/m2
21:20 47.1 °F 41.3 °F 30.46 in WNW 6.0 mph 11.0 mph 80 % 0.00 in 0 W/m2
21:21 47.1 °F 41.3 °F 30.46 in WNW 6.0 mph 11.0 mph 80 % 0.00 in 0 W/m2
21:26 46.9 °F 41.4 °F 30.46 in WNW 6.0 mph 11.0 mph 81 % 0.00 in 0 W/m2
21:31 46.8 °F 41.2 °F 30.47 in WNW 6.0 mph 11.0 mph 81 % 0.00 in 0 W/m2
21:37 46.8 °F 41.2 °F 30.47 in WNW 5.0 mph 11.0 mph 81 % 0.00 in 0 W/m2
21:42 46.6 °F 41.1 °F 30.46 in WNW 6.0 mph 12.0 mph 81 % 0.00 in 0 W/m2
21:47 46.4 °F 41.2 °F 30.47 in NW 6.0 mph 12.0 mph 82 % 0.00 in 0 W/m2
21:52 46.4 °F 41.2 °F 30.47 in WNW 5.0 mph 12.0 mph 82 % 0.00 in 0 W/m2
21:57 46.2 °F 41.0 °F 30.47 in WNW 4.0 mph 12.0 mph 82 % 0.00 in 0 W/m2
22:02 46.2 °F 41.0 °F 30.47 in NW 4.0 mph 10.0 mph 82 % 0.00 in 0 W/m2
22:07 46.0 °F 41.2 °F 30.47 in NW 5.0 mph 10.0 mph 83 % 0.00 in 0 W/m2
22:12 46.0 °F 41.2 °F 30.47 in WNW 5.0 mph 10.0 mph 83 % 0.00 in 0 W/m2
22:17 46.0 °F 41.2 °F 30.46 in WNW 4.0 mph 10.0 mph 83 % 0.00 in 0 W/m2
22:22 45.9 °F 41.0 °F 30.46 in WNW 4.0 mph 9.0 mph 83 % 0.00 in 0 W/m2
22:27 45.9 °F 41.0 °F 30.46 in WNW 5.0 mph 10.0 mph 83 % 0.00 in 0 W/m2
22:32 45.7 °F 40.8 °F 30.46 in WNW 5.0 mph 10.0 mph 83 % 0.00 in 0 W/m2
22:37 45.7 °F 40.8 °F 30.46 in WNW 5.0 mph 10.0 mph 83 % 0.00 in 0 W/m2
22:42 45.5 °F 40.6 °F 30.46 in NW 4.0 mph 10.0 mph 83 % 0.00 in 0 W/m2
22:47 45.5 °F 40.9 °F 30.46 in WNW 4.0 mph 11.0 mph 84 % 0.00 in 0 W/m2
22:52 45.3 °F 40.8 °F 30.46 in WNW 5.0 mph 11.0 mph 84 % 0.00 in 0 W/m2
22:57 45.3 °F 40.8 °F 30.46 in WNW 5.0 mph 9.0 mph 84 % 0.00 in 0 W/m2
23:02 45.1 °F 40.6 °F 30.46 in WNW 4.0 mph 8.0 mph 84 % 0.00 in 0 W/m2
23:07 45.1 °F 40.6 °F 30.47 in WNW 3.0 mph 8.0 mph 84 % 0.00 in 0 W/m2
23:12 45.0 °F 40.4 °F 30.46 in WNW 3.0 mph 8.0 mph 84 % 0.00 in 0 W/m2
23:17 44.8 °F 40.5 °F 30.46 in WNW 4.0 mph 8.0 mph 85 % 0.00 in 0 W/m2
23:22 44.8 °F 40.5 °F 30.47 in WNW 4.0 mph 8.0 mph 85 % 0.00 in 0 W/m2
23:27 44.8 °F 40.5 °F 30.47 in WNW 4.0 mph 9.0 mph 85 % 0.00 in 0 W/m2
23:32 44.8 °F 40.5 °F 30.47 in NW 5.0 mph 10.0 mph 85 % 0.00 in 0 W/m2
23:37 44.8 °F 40.5 °F 30.47 in WNW 4.0 mph 10.0 mph 85 % 0.00 in 0 W/m2
23:42 44.6 °F 40.4 °F 30.47 in WNW 2.0 mph 7.0 mph 85 % 0.00 in 0 W/m2
23:47 44.4 °F 40.2 °F 30.47 in WNW 2.0 mph 5.0 mph 85 % 0.00 in 0 W/m2
23:52 44.2 °F 40.0 °F 30.47 in WNW 2.0 mph 7.0 mph 85 % 0.00 in 0 W/m2
Delerius-Weather
Compliments of Weather Underground - 2.25 mb

Data updates at regular intervals.